サル島 の空港の天気 - METARとTAF

アミルカル・カブラル国際空港 ( GVAC / SID ) - カーボベルデ サル島
飛行場実況気象(Metar)
観測時間08/14 04:00 CVT (08/14 05:00 UTC)
風向・風速北北東 3m/s
視程10km以上
天気現象
全天の8割程度の雲 雲底高度 430m
気温25℃
湿度83%
気圧1013hPa
METARGVAC 140500Z 02006KT 9999 BKN014 25/22 Q1013 NOSIG
過去の天気等 Google飛行場航空写真 Wunderground天気予報

過去48時間のMETAR

飛行場予報(TAF)
発表時間: 8/14 04:00 CVT (8/14 05:00 UTC)
予報対象時間: 14日5時 CVT ~ 15日11時 CVT
風向・風速北東 4m/s
視程10km以上
全天の8割程度の雲 雲底高度 430m
TAF GVAC 140500Z 1406/1512 05008KT 9999 BKN014